Time;durP1;ratioP1;P1;durP2;ratioP2;P2;SDS_P1;SDS_P2;PMS_P1;PMS_P2;Temp;Humidity;BMP_temperature;BMP_pressure;BME280_temperature;BME280_humidity;BME280_pressure;Samples;Min_cycle;Max_cycle;Signal;HPM_P1;HPM_P2
2022/01/17 00:00:20;;;;;;;29.08;18.95;;;;;;;5.18;57.55;96520.19;4991608;28;20563;-63
2022/01/17 00:02:48;;;;;;;29.90;19.00;;;;;;;5.50;57.18;96548.72;4992254;28;20026;-62
2022/01/17 00:05:14;;;;;;;27.60;18.17;;;;;;;4.94;58.99;96572.19;4990884;28;20030;-62
2022/01/17 00:07:40;;;;;;;26.80;18.48;;;;;;;4.15;57.74;96376.13;4991453;28;20034;-62
2022/01/17 00:10:07;;;;;;;32.40;20.25;;;;;;;3.73;57.67;96315.75;4992733;28;20072;-62
2022/01/17 00:12:36;;;;;;;32.55;20.00;;;;;;;4.02;56.70;96313.97;4990515;28;20492;-61
2022/01/17 00:15:09;;;;;;;29.23;18.30;;;;;;;5.03;56.61;96517.25;4992017;28;20025;-62
2022/01/17 00:17:39;;;;;;;24.70;15.73;;;;;;;4.63;58.74;96531.22;4992018;28;20041;-62
2022/01/17 00:20:11;;;;;;;30.70;19.08;;;;;;;5.31;57.78;96619.34;4991307;28;20076;-61
2022/01/17 00:22:38;;;;;;;;;;;;;;;5.30;57.58;96572.88;4992000;28;20034;-60
2022/01/17 00:25:05;;;;;;;25.35;16.58;;;;;;;4.90;57.06;96512.25;4990267;28;19914;-62
2022/01/17 00:27:31;;;;;;;27.83;18.02;;;;;;;5.05;57.52;96582.94;4991570;28;20033;-62
2022/01/17 00:29:57;;;;;;;23.60;14.98;;;;;;;4.70;57.70;96550.31;4991035;28;20384;-62
2022/01/17 00:32:23;;;;;;;27.55;17.38;;;;;;;4.40;56.70;96455.66;4991407;28;20045;-62
2022/01/17 00:34:48;;;;;;;29.35;16.48;;;;;;;4.85;58.00;96612.31;4990441;28;20026;-62
2022/01/17 00:37:14;;;;;;;25.27;15.80;;;;;;;4.02;58.30;96511.44;4991710;28;20085;-62
2022/01/17 00:39:39;;;;;;;26.08;16.80;;;;;;;4.88;57.04;96570.47;4991679;28;20039;-62
2022/01/17 00:42:05;;;;;;;30.00;17.75;;;;;;;5.10;57.15;96590.94;4991354;28;20049;-62
2022/01/17 00:44:30;;;;;;;24.50;16.45;;;;;;;4.81;56.20;96508.34;4991340;28;20037;-62
2022/01/17 00:46:56;;;;;;;25.35;16.30;;;;;;;2.65;56.84;96240.78;4991468;28;20027;-62
2022/01/17 00:49:21;;;;;;;25.00;16.08;;;;;;;3.02;55.69;96336.03;4990806;28;20026;-62
2022/01/17 00:51:47;;;;;;;24.33;15.93;;;;;;;3.50;56.07;96395.50;4991526;28;20034;-61
2022/01/17 00:54:13;;;;;;;22.77;15.45;;;;;;;5.02;56.17;96571.03;4992241;28;20022;-62
2022/01/17 00:56:38;;;;;;;19.95;12.95;;;;;;;4.44;56.58;96537.66;4991105;28;20037;-65
2022/01/17 00:59:04;;;;;;;20.35;11.60;;;;;;;3.05;56.95;96424.91;4990564;28;20037;-61
2022/01/17 01:01:29;;;;;;;23.77;13.52;;;;;;;4.11;57.39;96561.94;4991256;28;20710;-62
2022/01/17 01:03:55;;;;;;;23.02;15.82;;;;;;;5.41;54.24;96553.56;4991147;28;20105;-62
2022/01/17 01:06:20;;;;;;;22.45;15.13;;;;;;;4.97;54.75;96526.09;4990660;28;20023;-62
2022/01/17 01:08:46;;;;;;;21.58;15.18;;;;;;;4.89;53.97;96513.28;4991748;28;20034;-62
2022/01/17 01:11:11;;;;;;;18.83;13.40;;;;;;;4.87;54.80;96581.28;4990490;28;20026;-61
2022/01/17 01:13:38;;;;;;;18.02;13.15;;;;;;;4.99;54.05;96562.78;4990867;28;20527;-61
2022/01/17 01:21:43;;;;;;;19.65;11.43;;;;;;;4.43;54.52;96541.31;4990950;28;20104;-61
2022/01/17 01:27:41;;;;;;;19.27;12.85;;;;;;;5.19;52.93;96565.81;4990994;28;20100;-62
2022/01/17 01:29:50;;;;;;;15.18;9.93;;;;;;;2.59;54.86;96317.84;4990121;28;20392;-62
2022/01/17 01:32:20;;;;;;;15.57;10.40;;;;;;;4.79;54.15;96644.88;4990698;28;20026;-62
2022/01/17 01:34:50;;;;;;;18.23;12.77;;;;;;;4.09;53.07;96467.34;4990737;28;20026;-62
2022/01/17 01:37:16;;;;;;;15.68;10.13;;;;;;;4.82;53.37;96541.63;4990576;28;20065;-62
2022/01/17 01:39:41;;;;;;;15.25;9.27;;;;;;;3.72;54.17;96476.50;4989546;28;20062;-62
2022/01/17 01:42:15;;;;;;;14.48;11.05;;;;;;;3.83;54.53;96488.88;4991944;28;20034;-62
2022/01/17 01:44:40;;;;;;;14.77;9.48;;;;;;;4.47;54.80;96604.91;4990311;28;20030;-61
2022/01/17 01:47:06;;;;;;;11.15;7.35;;;;;;;3.04;56.02;96436.47;4990358;28;20026;-62
2022/01/17 01:49:32;;;;;;;16.05;11.20;;;;;;;3.75;54.31;96391.84;4989929;28;20037;-62
2022/01/17 01:51:57;;;;;;;13.85;10.73;;;;;;;4.88;52.59;96527.50;4990199;28;20435;-62
2022/01/17 01:54:22;;;;;;;8.80;6.75;;;;;;;3.38;54.23;96389.44;4991105;28;20053;-62
2022/01/17 01:56:49;;;;;;;13.40;10.63;;;;;;;5.19;53.38;96529.69;4991514;28;20436;-62
2022/01/17 01:59:19;;;;;;;17.02;10.10;;;;;;;4.49;52.28;96428.94;4989440;28;20034;-61
2022/01/17 02:01:45;;;;;;;11.82;10.05;;;;;;;4.70;50.42;96309.69;4990589;28;20030;-62
2022/01/17 02:04:10;;;;;;;12.95;10.38;;;;;;;3.99;51.59;96282.03;4988721;28;20432;-62
2022/01/17 02:06:36;;;;;;;12.32;10.23;;;;;;;6.14;51.73;96578.34;4990099;28;20038;-62
2022/01/17 02:09:05;;;;;;;12.20;9.55;;;;;;;5.06;50.98;96419.19;4988979;28;20057;-62
2022/01/17 02:11:31;;;;;;;12.48;9.35;;;;;;;4.62;51.59;96391.78;4991391;28;20069;-62
2022/01/17 02:13:56;;;;;;;18.23;9.68;;;;;;;5.32;50.67;96485.56;4989894;28;20029;-62
2022/01/17 02:16:23;;;;;;;11.20;8.75;;;;;;;4.56;50.99;96406.69;4989976;28;20053;-62
2022/01/17 02:18:49;;;;;;;11.25;8.75;;;;;;;5.76;50.50;96549.16;4989544;28;20088;-61
2022/01/17 02:23:42;;;;;;;9.30;7.93;;;;;;;4.74;50.17;96384.63;4989458;28;20027;-61
2022/01/17 02:26:09;;;;;;;7.57;6.07;;;;;;;4.24;49.52;96290.44;4985142;28;20042;-61
2022/01/17 02:28:36;;;;;;;9.82;7.75;;;;;;;6.17;50.05;96587.63;4989345;28;20026;-61
2022/01/17 02:31:06;;;;;;;11.70;7.85;;;;;;;6.11;49.31;96562.19;4989377;28;20022;-61
2022/01/17 02:33:33;;;;;;;8.48;5.93;;;;;;;2.90;52.37;96209.03;4989700;28;20117;-61
2022/01/17 02:35:58;;;;;;;9.82;7.22;;;;;;;4.11;50.50;96280.19;4989729;28;20022;-61
2022/01/17 02:38:24;;;;;;;10.00;6.78;;;;;;;5.33;52.34;96550.53;4989176;28;20093;-61
2022/01/17 02:40:51;;;;;;;10.93;7.80;;;;;;;5.31;50.71;96486.63;4990452;28;20707;-61
2022/01/17 02:43:18;;;;;;;8.88;7.70;;;;;;;3.85;51.32;96308.66;4989446;28;20069;-62
2022/01/17 02:48:21;;;;;;;8.23;6.82;;;;;;;2.98;52.47;96195.56;4989765;28;20026;-62
2022/01/17 02:50:47;;;;;;;8.75;6.68;;;;;;;4.56;51.55;96343.47;4988918;28;20027;-62
2022/01/17 02:53:12;;;;;;;9.15;7.35;;;;;;;5.34;52.11;96479.03;4989187;28;20150;-62
2022/01/17 02:55:50;;;;;;;10.15;8.00;;;;;;;6.03;51.11;96515.03;4990912;28;20112;-61
2022/01/17 02:58:17;;;;;;;9.50;7.57;;;;;;;5.33;53.24;96482.72;4981209;28;20484;-62
2022/01/17 03:00:43;;;;;;;10.13;7.18;;;;;;;4.53;53.84;96422.97;4988940;28;20034;-61
2022/01/17 03:03:18;;;;;;;10.82;7.60;;;;;;;5.89;51.67;96501.31;4989586;28;20053;-62
2022/01/17 03:05:44;;;;;;;8.85;7.22;;;;;;;5.76;53.18;96583.47;4988422;28;20504;-61
2022/01/17 03:08:10;;;;;;;9.77;8.10;;;;;;;3.43;52.58;96178.31;4989319;28;20027;-61
2022/01/17 03:10:40;;;;;;;9.48;7.85;;;;;;;5.73;53.08;96538.06;4988800;28;20034;-62
2022/01/17 03:13:09;;;;;;;12.50;8.10;;;;;;;4.28;52.74;96274.97;4989327;28;20022;-61
2022/01/17 03:15:34;;;;;;;11.65;7.32;;;;;;;3.80;53.24;96261.16;4989434;28;20046;-62
2022/01/17 03:18:00;;;;;;;10.32;7.57;;;;;;;5.28;54.32;96522.22;4989504;28;20077;-61
2022/01/17 03:20:26;;;;;;;10.98;8.68;;;;;;;3.48;53.37;96171.34;4988757;28;20026;-61
2022/01/17 03:22:51;;;;;;;12.35;8.23;;;;;;;4.16;54.11;96338.22;4989299;28;20026;-61
2022/01/17 03:25:17;;;;;;;10.98;8.43;;;;;;;5.35;53.00;96483.28;4988646;28;20050;-62
2022/01/17 03:27:42;;;;;;;10.35;8.05;;;;;;;4.38;53.88;96369.97;4989155;28;20018;-62
2022/01/17 03:30:08;;;;;;;11.60;8.23;;;;;;;4.04;53.13;96261.88;4990421;28;20034;-61
2022/01/17 03:32:34;;;;;;;12.50;8.88;;;;;;;5.24;52.33;96375.97;4992760;28;20029;-61
2022/01/17 03:35:00;;;;;;;8.63;7.63;;;;;;;3.76;54.29;96338.19;4992795;28;20026;-61
2022/01/17 03:37:26;;;;;;;12.48;8.35;;;;;;;3.53;55.38;96320.56;4993070;28;20432;-61
2022/01/17 03:39:51;;;;;;;11.07;8.85;;;;;;;4.66;55.63;96453.53;4992937;28;20021;-62
2022/01/17 03:42:18;;;;;;;12.85;8.15;;;;;;;4.38;54.88;96368.13;4992499;28;20069;-61
2022/01/17 03:44:44;;;;;;;10.77;8.90;;;;;;;3.72;54.79;96258.09;4992720;28;20022;-61
2022/01/17 03:47:10;;;;;;;11.63;8.15;;;;;;;4.05;54.35;96263.50;4992650;28;20380;-61
2022/01/17 03:49:35;;;;;;;12.80;8.43;;;;;;;5.26;55.98;96520.81;4992040;28;20114;-63
2022/01/17 03:52:01;;;;;;;10.63;6.47;;;;;;;4.96;57.46;96598.31;4992538;28;20030;-62
2022/01/17 03:54:26;;;;;;;9.80;7.47;;;;;;;5.13;56.64;96524.56;4990685;28;20432;-61
2022/01/17 03:56:52;;;;;;;12.32;9.15;;;;;;;3.71;56.20;96277.56;4992834;28;20061;-62
2022/01/17 03:59:17;;;;;;;12.98;9.13;;;;;;;4.87;57.24;96473.97;4990821;28;20726;-62
2022/01/17 04:01:42;;;;;;;12.43;9.18;;;;;;;5.11;56.07;96390.25;4992350;28;20105;-62
2022/01/17 04:04:08;;;;;;;13.10;8.88;;;;;;;5.17;57.38;96491.41;4992403;28;20054;-62
2022/01/17 04:06:34;;;;;;;11.68;9.05;;;;;;;5.21;54.92;96355.34;4992118;28;20058;-61
2022/01/17 04:09:00;;;;;;;13.52;8.73;;;;;;;4.46;56.13;96345.91;4991228;28;20026;-62
2022/01/17 04:11:25;;;;;;;9.57;8.40;;;;;;;6.22;54.40;96511.88;4992033;28;20029;-62
2022/01/17 04:13:51;;;;;;;12.02;8.82;;;;;;;4.51;53.52;96210.84;4992119;28;20046;-62
2022/01/17 04:16:16;;;;;;;10.45;7.97;;;;;;;4.53;57.32;96399.25;4992229;28;20528;-62
2022/01/17 04:18:42;;;;;;;9.93;8.30;;;;;;;5.10;57.89;96488.88;4991927;28;20161;-62
2022/01/17 04:21:08;;;;;;;9.57;6.80;;;;;;;4.37;58.69;96450.03;4991873;28;20022;-61
2022/01/17 04:23:34;;;;;;;9.45;7.40;;;;;;;3.61;57.10;96228.16;4991444;28;20018;-62
2022/01/17 04:25:59;;;;;;;9.02;7.72;;;;;;;3.78;56.34;96249.25;4993467;28;20033;-61
2022/01/17 04:28:24;;;;;;;11.05;8.02;;;;;;;3.91;58.25;96370.88;4991943;28;20118;-61
2022/01/17 04:30:50;;;;;;;9.30;7.35;;;;;;;3.65;56.93;96345.84;4991235;28;20504;-61
2022/01/17 04:33:15;;;;;;;7.32;5.60;;;;;;;2.85;58.98;96293.00;4992033;28;20473;-62
2022/01/17 04:35:41;;;;;;;9.35;7.35;;;;;;;3.01;58.32;96275.78;4992048;28;20105;-61
2022/01/17 04:38:09;;;;;;;7.90;6.43;;;;;;;2.95;59.08;96297.72;4991643;28;20030;-61
2022/01/17 04:40:38;;;;;;;9.68;7.72;;;;;;;4.16;58.15;96390.88;4991134;28;20022;-61
2022/01/17 04:43:13;;;;;;;12.20;8.50;;;;;;;3.60;58.48;96311.53;4991741;28;20767;-61
2022/01/17 04:45:38;;;;;;;8.60;7.18;;;;;;;3.36;58.34;96257.34;4991793;28;20077;-62
2022/01/17 04:48:04;;;;;;;11.77;8.27;;;;;;;3.50;58.97;96313.16;4991808;28;20049;-62
2022/01/17 04:50:29;;;;;;;9.93;7.45;;;;;;;5.07;58.89;96615.19;4989624;28;20578;-61
2022/01/17 04:52:57;;;;;;;9.60;6.65;;;;;;;4.94;58.95;96589.84;4991112;28;20077;-61
2022/01/17 04:55:24;;;;;;;8.93;7.40;;;;;;;3.42;58.51;96361.63;4992577;28;20018;-62
2022/01/17 04:57:50;;;;;;;9.05;7.53;;;;;;;4.44;58.18;96479.69;4991422;28;20388;-61
2022/01/17 05:00:18;;;;;;;8.85;6.95;;;;;;;4.98;58.81;96608.66;4990777;28;20034;-61
2022/01/17 05:02:45;;;;;;;9.18;7.70;;;;;;;3.50;58.25;96389.44;4990097;28;20101;-62
2022/01/17 05:05:12;;;;;;;11.10;7.13;;;;;;;4.16;57.68;96428.56;4991331;28;20027;-61
2022/01/17 05:07:39;;;;;;;11.98;8.20;;;;;;;5.09;57.76;96526.84;4991155;28;20050;-61
2022/01/17 05:10:08;;;;;;;11.98;8.70;;;;;;;4.80;56.78;96470.66;4990092;28;20367;-61
2022/01/17 05:12:33;;;;;;;10.15;8.45;;;;;;;5.33;55.11;96460.81;4992301;28;20671;-61
2022/01/17 05:14:59;;;;;;;9.85;7.88;;;;;;;4.84;54.46;96337.34;4990912;28;20105;-62
2022/01/17 05:19:59;;;;;;;11.30;7.70;;;;;;;4.02;56.33;96340.31;4990187;28;20102;-61
2022/01/17 05:22:32;;;;;;;9.02;8.07;;;;;;;6.27;53.97;96531.50;4990931;28;20037;-61
2022/01/17 05:25:07;;;;;;;11.43;8.65;;;;;;;4.72;54.19;96330.56;4991876;28;20406;-62
2022/01/17 05:27:34;;;;;;;11.85;7.75;;;;;;;5.02;54.68;96404.91;4990864;28;20569;-61
2022/01/17 05:30:00;;;;;;;13.35;7.75;;;;;;;5.49;54.23;96428.38;4989942;28;20499;-62
2022/01/17 05:32:26;;;;;;;7.97;7.18;;;;;;;5.63;56.43;96553.72;4990554;28;20034;-61
2022/01/17 05:34:51;;;;;;;8.82;7.40;;;;;;;6.44;54.74;96612.34;4989419;28;20030;-61
2022/01/17 05:37:16;;;;;;;8.70;7.70;;;;;;;6.38;54.45;96549.91;4990601;28;20018;-62
2022/01/17 05:39:43;;;;;;;9.32;6.90;;;;;;;4.49;54.93;96305.09;4990845;28;20042;-62
2022/01/17 05:42:14;;;;;;;10.55;7.45;;;;;;;5.43;55.34;96471.53;4991675;28;20554;-61
2022/01/17 05:44:39;;;;;;;8.73;7.15;;;;;;;5.90;55.92;96571.59;4990621;28;20121;-62
2022/01/17 05:47:06;;;;;;;9.10;7.47;;;;;;;6.46;53.79;96524.91;4990341;28;20101;-61
2022/01/17 05:49:31;;;;;;;8.27;7.38;;;;;;;4.16;53.44;96241.59;4989730;28;20026;-62
2022/01/17 05:51:56;;;;;;;9.43;7.30;;;;;;;5.54;53.31;96404.69;4989886;28;20037;-62
2022/01/17 05:54:22;;;;;;;11.70;7.75;;;;;;;4.87;53.40;96296.53;4990075;28;20032;-62
2022/01/17 05:56:47;;;;;;;8.15;7.35;;;;;;;4.50;54.26;96344.38;4991549;28;20113;-61
2022/01/17 05:59:12;;;;;;;7.35;6.53;;;;;;;4.19;54.93;96295.59;4988221;28;20468;-61
2022/01/17 06:01:41;;;;;;;9.98;7.65;;;;;;;6.64;53.96;96619.81;4990006;28;20101;-62
2022/01/17 06:04:06;;;;;;;7.95;7.10;;;;;;;4.27;54.09;96271.53;4990043;28;20100;-62
2022/01/17 06:06:31;;;;;;;9.55;7.13;;;;;;;4.87;53.68;96362.44;4990081;28;20543;-62
2022/01/17 06:08:57;;;;;;;8.20;6.85;;;;;;;5.71;54.33;96521.63;4989274;28;20117;-62
2022/01/17 06:11:22;;;;;;;6.35;4.97;;;;;;;3.27;56.67;96291.09;4991476;28;20022;-61
2022/01/17 06:13:48;;;;;;;7.97;6.90;;;;;;;5.36;55.49;96507.81;4989778;28;20057;-62
2022/01/17 06:16:13;;;;;;;9.75;7.18;;;;;;;5.46;54.56;96471.06;4989904;28;20026;-63
2022/01/17 06:18:38;;;;;;;8.52;6.38;;;;;;;5.38;55.92;96540.06;4989636;28;20026;-63
2022/01/17 06:21:04;;;;;;;10.32;7.10;;;;;;;5.23;55.78;96506.28;4989503;28;20084;-63
2022/01/17 06:23:30;;;;;;;8.85;6.35;;;;;;;4.02;55.22;96318.44;4989761;28;20030;-61
2022/01/17 06:25:55;;;;;;;7.63;5.95;;;;;;;4.99;57.46;96554.88;4990862;28;20033;-67
2022/01/17 06:28:21;;;;;;;8.10;7.22;;;;;;;5.71;55.48;96568.34;4989734;28;20554;-65
2022/01/17 06:30:46;;;;;;;5.75;5.05;;;;;;;5.02;57.21;96544.66;4989048;28;20545;-66
2022/01/17 06:33:12;;;;;;;5.90;3.95;;;;;;;5.00;58.09;96570.44;4989536;28;20026;-61
2022/01/17 06:35:38;;;;;;;9.63;6.85;;;;;;;5.08;57.02;96554.28;4989585;28;20018;-61
2022/01/17 06:38:03;;;;;;;8.20;7.10;;;;;;;4.20;54.96;96302.50;4989477;28;20036;-62
2022/01/17 06:40:29;;;;;;;8.02;6.90;;;;;;;3.86;56.38;96356.81;4988491;28;20080;-61
2022/01/17 06:42:55;;;;;;;6.60;5.82;;;;;;;5.84;55.76;96585.75;4990837;28;20053;-61
2022/01/17 06:45:21;;;;;;;7.28;6.20;;;;;;;4.28;54.62;96264.44;4987936;28;20033;-61
2022/01/17 06:47:47;;;;;;;9.10;7.15;;;;;;;6.43;53.85;96528.03;4987596;28;20019;-61
2022/01/17 06:50:13;;;;;;;8.55;7.00;;;;;;;6.04;54.45;96471.72;4986656;28;20029;-67
2022/01/17 06:52:39;;;;;;;7.78;6.78;;;;;;;7.29;53.76;96582.03;4987729;28;20030;-68
2022/01/17 06:55:06;;;;;;;8.68;6.75;;;;;;;7.70;51.72;96590.41;4988878;28;20487;-67
2022/01/17 06:57:31;;;;;;;7.72;6.68;;;;;;;7.55;52.18;96577.03;4991052;28;20026;-67
2022/01/17 06:59:57;;;;;;;7.78;5.78;;;;;;;6.11;52.23;96457.31;4988738;28;20019;-65
2022/01/17 07:02:23;;;;;;;9.85;6.88;;;;;;;6.42;53.13;96558.94;4989112;28;20112;-63
2022/01/17 07:04:49;;;;;;;7.07;6.38;;;;;;;6.53;53.89;96586.31;4991755;28;20034;-62
2022/01/17 07:07:16;;;;;;;9.40;6.13;;;;;;;5.30;54.71;96419.88;4992682;28;20034;-66
2022/01/17 07:09:41;;;;;;;8.65;6.50;;;;;;;4.24;54.73;96231.69;4992235;28;20512;-63
2022/01/17 07:12:07;;;;;;;7.00;5.00;;;;;;;4.79;56.72;96449.81;4994021;28;20053;-61
2022/01/17 07:14:33;;;;;;;8.45;6.40;;;;;;;5.53;55.94;96548.25;4992942;28;20025;-63
2022/01/17 07:16:58;;;;;;;6.93;6.20;;;;;;;5.96;56.05;96573.28;4992863;28;20097;-64
2022/01/17 07:19:24;;;;;;;6.63;5.88;;;;;;;5.48;56.11;96585.91;4992324;28;20077;-62
2022/01/17 07:21:51;;;;;;;7.65;6.30;;;;;;;4.86;57.51;96553.28;4992342;28;20030;-64
2022/01/17 07:24:17;;;;;;;6.85;5.60;;;;;;;5.99;56.09;96691.69;4991583;28;20476;-63
2022/01/17 07:26:42;;;;;;;6.45;4.60;;;;;;;5.03;57.20;96620.09;4993744;28;20106;-63
2022/01/17 07:29:08;;;;;;;6.43;5.22;;;;;;;5.70;57.30;96675.78;4991785;28;20505;-64
2022/01/17 07:31:37;;;;;;;8.65;4.82;;;;;;;5.58;57.67;96712.00;4992656;28;20041;-61
2022/01/17 07:34:04;;;;;;;5.90;5.28;;;;;;;6.08;56.62;96732.50;4992376;28;20527;-64
2022/01/17 07:36:31;;;;;;;8.25;6.55;;;;;;;6.18;56.32;96747.75;4992821;28;20051;-64
2022/01/17 07:38:58;;;;;;;5.20;4.40;;;;;;;6.05;56.66;96740.13;4991765;28;20057;-65
2022/01/17 07:41:24;;;;;;;6.20;5.43;;;;;;;4.63;56.41;96491.69;4992501;28;20030;-64
2022/01/17 07:43:51;;;;;;;6.50;5.45;;;;;;;5.42;57.21;96654.63;4991297;28;20499;-64
2022/01/17 07:46:25;;;;;;;7.07;5.90;;;;;;;6.21;56.63;96684.69;4991812;28;20033;-67
2022/01/17 07:49:09;;;;;;;7.28;5.85;;;;;;;6.46;55.63;96691.44;4992336;28;20113;-66
2022/01/17 07:51:36;;;;;;;7.78;5.50;;;;;;;5.72;55.68;96620.09;4992651;28;20113;-66
2022/01/17 07:54:03;;;;;;;7.55;5.18;;;;;;;4.91;58.35;96590.28;4992628;28;20022;-66
2022/01/17 07:56:30;;;;;;;6.15;4.50;;;;;;;4.23;57.12;96448.69;4993438;28;20033;-64
2022/01/17 07:58:55;;;;;;;9.68;6.40;;;;;;;4.74;57.19;96526.16;4991793;28;20041;-65
2022/01/17 08:01:21;;;;;;;7.00;5.07;;;;;;;2.97;60.01;96303.53;4991851;28;20473;-66
2022/01/17 08:03:46;;;;;;;8.30;5.80;;;;;;;4.40;56.93;96415.31;4992268;28;20049;-65
2022/01/17 08:06:12;;;;;;;7.28;5.35;;;;;;;5.83;58.20;96652.78;4992320;28;20041;-68
2022/01/17 08:08:38;;;;;;;6.53;4.25;;;;;;;5.20;60.64;96686.91;4992089;28;20061;-64
2022/01/17 08:11:04;;;;;;;6.95;5.47;;;;;;;4.65;60.51;96607.41;4992438;28;20026;-66
2022/01/17 08:13:31;;;;;;;7.15;6.45;;;;;;;5.28;60.01;96622.47;4990742;28;20428;-67
2022/01/17 08:15:56;;;;;;;6.35;5.60;;;;;;;5.72;59.27;96689.56;4991997;28;20362;-66
2022/01/17 08:18:22;;;;;;;5.00;4.18;;;;;;;4.83;61.08;96646.84;4992423;28;20023;-66
2022/01/17 08:20:48;;;;;;;5.47;3.80;;;;;;;4.63;59.96;96589.19;4991618;28;20050;-66
2022/01/17 08:23:13;;;;;;;6.15;4.97;;;;;;;3.87;60.44;96482.94;4991981;28;20030;-67
2022/01/17 08:25:39;;;;;;;8.32;5.60;;;;;;;5.37;60.79;96709.94;4991609;28;20101;-67
2022/01/17 08:28:04;;;;;;;9.50;5.70;;;;;;;5.21;61.97;96690.34;4993716;28;20025;-66
2022/01/17 08:30:32;;;;;;;7.38;6.68;;;;;;;5.67;60.05;96673.59;4991328;28;20495;-65
2022/01/17 08:32:59;;;;;;;6.47;4.70;;;;;;;4.74;62.49;96652.69;4992031;28;20416;-67
2022/01/17 08:35:25;;;;;;;11.27;7.35;;;;;;;6.30;59.34;96693.03;4992034;28;20052;-67
2022/01/17 08:37:51;;;;;;;5.68;4.97;;;;;;;4.67;61.15;96558.72;4992092;28;20431;-64
2022/01/17 08:40:18;;;;;;;8.10;7.30;;;;;;;4.67;59.93;96484.91;4990897;28;20473;-67
2022/01/17 08:42:44;;;;;;;6.88;5.63;;;;;;;4.29;60.65;96534.69;4993051;28;20022;-65
2022/01/17 08:45:12;;;;;;;7.50;5.13;;;;;;;5.50;61.84;96690.44;4991785;28;20503;-67
2022/01/17 08:47:38;;;;;;;8.20;6.78;;;;;;;4.55;59.97;96457.78;4991601;28;20076;-65
2022/01/17 08:50:05;;;;;;;8.38;6.95;;;;;;;4.47;59.64;96415.19;4991194;28;20026;-67
2022/01/17 08:52:31;;;;;;;7.75;6.57;;;;;;;5.82;59.53;96588.59;4991258;28;20088;-65
2022/01/17 08:54:57;;;;;;;9.10;6.68;;;;;;;5.28;59.43;96534.59;4991270;28;20030;-64
2022/01/17 08:57:23;;;;;;;5.70;3.70;;;;;;;3.99;60.78;96403.94;4992556;28;20448;-64
2022/01/17 08:59:50;;;;;;;3.92;3.55;;;;;;;4.35;60.31;96421.31;4992258;28;20480;-65
2022/01/17 09:02:15;;;;;;;7.20;5.93;;;;;;;3.54;59.84;96275.66;4991214;28;20030;-64
2022/01/17 09:04:41;;;;;;;7.97;5.85;;;;;;;5.26;58.44;96547.22;4991553;28;20069;-64
2022/01/17 09:07:15;;;;;;;6.75;4.47;;;;;;;5.71;58.49;96606.09;4991605;28;20396;-67
2022/01/17 09:09:42;;;;;;;5.88;4.97;;;;;;;6.42;58.41;96706.16;4990234;28;20022;-63
2022/01/17 09:12:10;;;;;;;7.80;6.97;;;;;;;6.78;58.23;96663.38;4986138;28;20523;-68
2022/01/17 09:14:37;;;;;;;6.20;5.07;;;;;;;5.87;58.93;96615.09;4989546;28;20042;-65
2022/01/17 09:17:08;;;;;;;6.95;5.60;;;;;;;6.15;59.81;96669.78;4991290;28;20066;-65
2022/01/17 09:19:38;;;;;;;6.78;5.90;;;;;;;5.26;60.19;96590.22;4990429;28;20026;-64
2022/01/17 09:22:06;;;;;;;5.90;4.57;;;;;;;5.73;60.12;96685.91;4991007;28;20049;-65
2022/01/17 09:24:33;;;;;;;7.38;6.38;;;;;;;7.33;56.56;96721.84;4990845;28;20031;-64
2022/01/17 09:27:00;;;;;;;7.18;4.80;;;;;;;6.36;57.30;96633.94;4991321;28;20029;-63
2022/01/17 09:29:25;;;;;;;7.05;6.35;;;;;;;5.85;58.32;96634.88;4989771;28;20030;-65
2022/01/17 09:31:51;;;;;;;8.75;6.38;;;;;;;6.93;55.38;96604.59;4990463;28;20492;-67
2022/01/17 09:34:16;;;;;;;7.00;5.97;;;;;;;7.27;56.12;96727.06;4990710;28;20026;-66
2022/01/17 09:36:42;;;;;;;7.95;6.45;;;;;;;7.06;56.55;96680.16;4990809;28;20018;-66
2022/01/17 09:39:08;;;;;;;6.70;5.25;;;;;;;7.40;55.71;96717.94;4989793;28;20037;-66
2022/01/17 09:41:34;;;;;;;6.72;5.55;;;;;;;7.15;56.14;96691.94;4990531;28;20456;-66
2022/01/17 09:44:01;;;;;;;8.07;6.18;;;;;;;6.85;57.63;96713.47;4991182;28;20026;-67
2022/01/17 09:46:33;;;;;;;7.53;6.20;;;;;;;6.64;56.71;96662.09;4990384;28;20037;-66
2022/01/17 09:49:13;;;;;;;7.93;5.78;;;;;;;7.29;55.88;96726.81;4990160;28;20025;-68
2022/01/17 09:54:20;;;;;;;6.57;5.78;;;;;;;7.42;54.81;96685.94;4990493;28;20384;-66
2022/01/17 09:56:50;;;;;;;7.38;5.75;;;;;;;7.12;55.25;96683.72;4991517;28;20030;-66
2022/01/17 09:59:15;;;;;;;6.05;4.50;;;;;;;6.22;56.87;96646.63;4989331;28;20030;-67
2022/01/17 10:01:41;;;;;;;7.50;5.47;;;;;;;7.03;56.19;96730.94;4990053;28;20033;-66
2022/01/17 10:04:07;;;;;;;6.97;4.88;;;;;;;6.88;56.36;96693.69;4990145;28;20518;-67
2022/01/17 10:06:35;;;;;;;6.85;5.75;;;;;;;7.55;55.13;96735.88;4990102;28;20473;-67
2022/01/17 10:09:15;;;;;;;4.57;3.40;;;;;;;6.57;57.84;96729.41;4989707;28;20019;-64
2022/01/17 10:11:59;;;;;;;6.35;5.30;;;;;;;6.74;55.32;96598.78;4990697;28;20034;-63
2022/01/17 10:14:26;;;;;;;5.50;4.43;;;;;;;6.78;57.05;96737.44;4985939;28;20481;-63
2022/01/17 10:16:51;;;;;;;5.28;3.97;;;;;;;5.97;58.22;96638.28;4990295;28;20080;-63
2022/01/17 10:19:21;;;;;;;7.35;4.22;;;;;;;6.85;56.85;96694.94;4989173;28;20038;-61
2022/01/17 10:21:50;;;;;;;4.28;3.33;;;;;;;6.95;56.18;96689.81;4990008;28;20667;-63
2022/01/17 10:37:15;;;;;;;5.20;3.72;;;;;;;7.29;55.12;96658.78;4990338;28;20033;-64
2022/01/17 10:40:01;;;;;;;6.10;5.50;;;;;;;7.58;53.78;96657.81;4991881;28;20053;-64
2022/01/17 10:42:30;;;;;;;6.60;5.05;;;;;;;8.05;53.48;96695.16;4993213;28;20058;-63
2022/01/17 10:45:07;;;;;;;8.13;5.47;;;;;;;5.85;54.43;96402.50;4995296;28;20034;-64
2022/01/17 10:47:35;;;;;;;5.88;4.78;;;;;;;5.95;54.95;96448.38;4993725;28;20053;-64
2022/01/17 10:50:05;;;;;;;4.25;3.50;;;;;;;5.19;56.92;96474.28;4993160;28;20026;-65
2022/01/17 10:52:37;;;;;;;5.18;4.60;;;;;;;6.35;57.04;96653.47;4993620;28;20034;-65
2022/01/17 10:55:24;;;;;;;4.70;3.73;;;;;;;7.07;56.06;96700.31;4993653;28;20054;-66
2022/01/17 10:57:56;;;;;;;5.63;4.40;;;;;;;7.54;55.57;96744.88;4994089;28;20272;-65
2022/01/17 11:00:27;;;;;;;4.57;2.88;;;;;;;5.25;56.38;96466.47;4992634;28;20548;-64
2022/01/17 11:02:58;;;;;;;3.13;2.55;;;;;;;6.74;57.03;96722.28;4993513;28;20045;-65
2022/01/17 11:05:27;;;;;;;5.85;4.05;;;;;;;7.07;56.52;96736.56;4993496;28;20030;-63
2022/01/17 11:07:56;;;;;;;4.00;3.25;;;;;;;5.07;57.49;96493.84;4993352;28;20034;-66
2022/01/17 11:10:29;;;;;;;3.67;3.17;;;;;;;5.22;56.48;96441.38;4992021;28;20023;-64
2022/01/17 11:12:58;;;;;;;5.20;3.80;;;;;;;6.97;55.23;96665.78;4992936;28;20109;-64
2022/01/17 11:15:25;;;;;;;6.07;3.75;;;;;;;7.01;55.96;96711.84;4993216;28;20022;-67
2022/01/17 11:17:53;;;;;;;4.63;3.95;;;;;;;6.96;55.92;96675.56;4993339;28;20077;-68
2022/01/17 11:20:22;;;;;;;5.10;3.25;;;;;;;6.85;55.97;96672.97;4992540;28;20076;-66
2022/01/17 11:22:50;;;;;;;4.32;3.35;;;;;;;6.72;54.59;96613.31;4993070;28;20026;-65
2022/01/17 11:25:22;;;;;;;3.88;3.42;;;;;;;6.96;54.51;96584.78;4993042;28;20492;-65
2022/01/17 11:27:48;;;;;;;4.15;3.22;;;;;;;6.10;56.56;96560.59;4993564;28;20037;-66
2022/01/17 11:30:16;;;;;;;4.28;3.83;;;;;;;7.22;56.09;96689.94;4992326;28;20022;-64
2022/01/17 11:32:45;;;;;;;6.57;4.72;;;;;;;7.61;54.96;96708.41;4992241;28;20026;-64
2022/01/17 11:35:13;;;;;;;4.60;3.70;;;;;;;5.97;56.31;96530.00;4992738;28;20036;-64
2022/01/17 11:37:42;;;;;;;7.70;5.18;;;;;;;5.97;54.35;96480.59;4992808;28;20477;-63
2022/01/17 11:40:10;;;;;;;4.47;3.20;;;;;;;5.60;56.56;96519.06;4991916;28;20080;-65
2022/01/17 11:42:43;;;;;;;3.90;3.30;;;;;;;6.93;56.02;96717.56;4993652;28;20034;-67
2022/01/17 11:45:21;;;;;;;5.25;4.22;;;;;;;7.01;55.79;96690.69;4984880;28;20605;-63
2022/01/17 11:47:59;;;;;;;6.00;3.40;;;;;;;6.66;55.91;96601.88;4992692;28;20022;-63
2022/01/17 11:50:28;;;;;;;4.03;3.60;;;;;;;7.36;55.25;96676.34;4990162;28;20050;-62
2022/01/17 11:52:58;;;;;;;4.90;3.25;;;;;;;5.72;56.49;96533.78;4991301;28;20456;-61
2022/01/17 11:55:38;;;;;;;4.38;3.47;;;;;;;7.21;55.09;96698.91;4992098;28;20435;-61
2022/01/17 11:58:37;;;;;;;4.75;4.00;;;;;;;7.94;53.28;96707.50;4993821;28;20025;-66
2022/01/17 12:01:02;;;;;;;5.65;3.72;;;;;;;7.54;54.05;96713.91;4991587;28;20033;-61
2022/01/17 12:03:29;;;;;;;8.30;2.88;;;;;;;7.12;54.99;96721.56;4992449;28;20030;-62
2022/01/17 12:05:57;;;;;;;4.97;3.90;;;;;;;6.97;55.03;96628.75;4992317;28;20026;-63
2022/01/17 12:08:26;;;;;;;6.55;4.10;;;;;;;5.77;55.41;96503.22;4992425;28;20034;-63
2022/01/17 12:11:01;;;;;;;5.88;3.33;;;;;;;5.15;55.05;96433.59;4990962;28;20469;-65